Používaním stránok prevádzkovaných PROFIPILOT, s.r.o. súhlasíte s používaním cookies, ktoré nám pomáhajú zabezpečiť lepšie služby.OK

Briefing

MAPA | METAR | TAF | METEO SITUÁCIA
MAPA | METAR | TAF | METEO SITUÁCIA

Predpoveď na dnes

Premenlivá, prevažne veľká oblačnosť. Na mnohých miestach dážď alebo prehánky, možnosť aj búrky. Na hrebeňoch Tatier sneženie. Najvyššia denná teplota 16 až 21, na Orave a v podtatranskej oblasti okolo 14 st. Teplota na horách vo výške 1500 m okolo 6 st. Prevažne severozápadný vietor 2 až 7 m/s (5 až 25 km/h),v Popradskej kotline až do 9 m/s (30 km/h), vo východnej polovici Slovenska prevažne slabý vietor. Predpokladané množstvo zrážok: do 5, ojedinele okolo 7 mma hrebeňoch Tatier do 4 cm snehu

SHMÚ, OMPaV, JP 24.6.2018 12:10 LSEČ

MAPA | METAR | TAF | METEO SITUÁCIA

TAF - Letisková predpoveď

24.06.2018 - 17:00 UTC

TAF LZIB 241700Z 2418/2518 31006KT CAVOK
     PROB40 TEMPO 2421/2501 27008KT 9999 -SHRA FEW032TCU SCT042=
 TAF LZKZ 241700Z 2418/2518 25007KT CAVOK
     PROB40 TEMPO 2418/2421 34010KT 9999 SHRA FEW027TCU SCT034
     BECMG 2501/2503 02005KT=
 TAF LZTT 241700Z 2418/2518 29008KT 9999 SCT034
     PROB30 TEMPO 2418/2420 27012KT SHRA FEW027TCU BKN035=
 

24.06.2018 - 17:00 UTC

TAF LZSL 241700Z 2418/2503 32009KT 9999 FEW047
     PROB30 TEMPO 2418/2420 VRB02KT -SHRA SCT042TCU
     BECMG 2420/2422 CAVOK=
 TAF LZPP 241700Z 2418/2503 VRB02KT CAVOK
     BECMG 2421/2423 34004KT 9999 SCT037 BKN055=
 TAF LZZI 241700Z 2418/2503 06005KT 9999 SCT047 BKN060
     PROB30 TEMPO 2418/2421 28008KT -SHRA SCT033TCU
     PROB40 TEMPO 2501/2503 VRB02KT 5000 BCFG BKN005=
 

24.06.2018 - 14:00 UTC

TAF LZSL 241400Z 2415/2500 30005KT 9999 SCT040 BKN060
     TEMPO 2415/2418 32010KT -SHRA BKN033 SCT040CB=
 TAF LZPP 241400Z 2415/2500 32008KT 9999 BKN040
     TEMPO 2415/2418 01010KT -SHRA BKN033 SCT040CB=
 TAF LZZI 241400Z 2415/2500 22006KT 9999 SCT040 BKN060
     TEMPO 2415/2418 28010KT -SHRA BKN033 SCT040CB=
 

24.06.2018 - 11:00 UTC

TAF LZIB 241100Z 2412/2512 31006KT CAVOK
     TEMPO 2412/2506 34010KT 9999 SHRA BKN040 SCT045CB=
 TAF LZKZ 241100Z 2412/2512 22005KT CAVOK
     PROB40 TEMPO 2412/2417 34010KT 9999 TSRA BKN035 SCT045CB=
 TAF LZTT 241100Z 2412/2512 29006KT 9999 SCT042 BKN050
     TEMPO 2412/2418 30012KT TSRA BKN035 SCT045CB
     TEMPO 2510/2512 04010KT TSRA BKN040 SCT050CB=
 

24.06.2018 - 11:00 UTC

TAF LZSL 241100Z 2412/2421 30005KT 9999 SCT040 BKN060
     TEMPO 2412/2416 34010KT -SHRA BKN033 SCT040CB=
 TAF LZPP 241100Z 2412/2421 32008KT 9999 BKN040
     TEMPO 2412/2418 01010KT -SHRA BKN033 SCT040CB=
 TAF LZZI 241100Z 2412/2421 24004KT 9999 SCT040 BKN060
     TEMPO 2412/2418 28010KT -SHRA BKN033 SCT040CB=
 

24.06.2018 - 08:00 UTC

TAF LZSL 240800Z 2409/2418 30005KT 9999 SCT040 BKN060
     TEMPO 2410/2416 34010KT -SHRA BKN033=
 TAF LZPP 240800Z 2409/2418 34008KT 9999 BKN040
     PROB40 TEMPO 2410/2416 01010KT -SHRA BKN033=
 TAF LZZI 240800Z 2409/2418 24004KT 9999 SCT040 BKN060
     PROB40 TEMPO 2409/2415 28010KT -SHRA BKN033=
 

24.06.2018 - 05:00 UTC

TAF LZSL 240500Z 2406/2415 05003KT CAVOK
     PROB40 TEMPO 2409/2412 34006KT 9999 -SHRA SCT040 BKN055=
 TAF LZPP 240500Z 2406/2415 32008KT 9999 BKN040
     PROB40 TEMPO 2409/2415 01010KT -SHRA=
 TAF LZZI 240500Z 2406/2415 30004KT 9999 BKN007
     BECMG 2406/2408 BKN033
     PROB40 TEMPO 2409/2415 27008KT -SHRA=
 

24.06.2018 - 05:00 UTC

TAF LZIB 240500Z 2406/2506 31006KT CAVOK
     TEMPO 2412/2506 32010KT 9999 SHRA FEW020TCU SCT034=
 TAF LZKZ 240500Z 2406/2506 02005KT CAVOK
     PROB40 TEMPO 2410/2417 34010KT 9999 SHRA FEW033TCU SCT045=
 TAF LZTT 240500Z 2406/2506 29006KT 9999 SCT042 BKN050
     TEMPO 2410/2418 30012KT SHRA SCT035TCU BKN040=
 

24.06.2018 - 02:00 UTC

TAF LZSL 240200Z 2403/2412 05003KT CAVOK
     PROB30 TEMPO 2403/2412 9999 -RA SCT040 BKN055=
 TAF LZZI 240200Z 2403/2412 28004KT 9999 BKN020
     PROB40 TEMPO 2403/2412 -RA
     PROB30 2403/2405 0800 FG BKN003=
 
MAPA | METAR | TAF | METEO SITUÁCIA

METAR - Letisková meteo správa

Letisková meteorologická správa METAR

Meteorologické informácie z ďalších profesionálnych meteorologických staníc SHMÚ zobrazené v tvare zodpovedajúcom pravidlám kódovania správ METAR sú uvedené v položke „METSYN Informácie o správe METAR

24.06.2018 - 18:00 UTC

METAR LZIB 241800Z 33003KT CAVOK 18/07 Q1017 NOSIG=
 METAR LZKZ 241800Z 07004KT 040V110 9999 SCT044 14/11 Q1016=
 METAR LZPP 241800Z 31008KT CAVOK 17/08 Q1017=
 METAR LZSL 241800Z 09004KT 9999 FEW043 SCT065 BKN085 16/07 Q1016=
 METAR LZTT 241800Z 28013KT 9999 FEW033 BKN060 12/07 Q1016=
 METAR LZZI 241800Z 08004KT 9999 FEW035 BKN041 OVC055 14/11 Q1017=
 

24.06.2018 - 17:30 UTC

METAR LZIB 241730Z 32005KT CAVOK 19/07 Q1017 NOSIG=
 METAR LZKZ 241730Z 02012KT 9999 FEW037 FEW043CB 15/11 Q1016=
 METAR LZPP 241730Z 31008KT 9999 FEW035 SCT050 BKN090 17/08 Q1017=
 METAR LZSL 241730Z 04004KT 020V080 9999 FEW046 BKN080 17/07 Q1016=
 METAR LZTT 241730Z 26012KT 9999 FEW033 SCT060 12/07 Q1016=
 METAR LZZI 241730Z 06004KT 9999 FEW045 BKN060 14/11 Q1017=
 

24.06.2018 - 18:00 UTC

METAR LZMC 241800Z 01002KT CAVOK 17/08 Q1018=
 METAR LZPW 241800Z 30004KT 9999 SCT046 BKN080 12/10
 Q1016=
 
načítavam...